createdAt,value
2018-11-04T00:01:06.488Z,9.75
2018-11-04T00:03:33.930Z,9.75
2018-11-04T00:06:01.390Z,9.73
2018-11-04T00:08:29.060Z,9.68
2018-11-04T00:10:56.596Z,9.65
2018-11-04T00:13:24.117Z,9.65
2018-11-04T00:15:51.615Z,9.65
2018-11-04T00:18:19.095Z,9.63
2018-11-04T00:20:46.587Z,9.60
2018-11-04T00:23:14.111Z,9.58
2018-11-04T00:25:41.698Z,9.59
2018-11-04T00:28:09.201Z,9.54
2018-11-04T00:30:36.789Z,9.49
2018-11-04T00:33:04.616Z,9.52
2018-11-04T00:35:32.069Z,9.54
2018-11-04T00:37:59.537Z,9.57
2018-11-04T00:40:27.425Z,9.62
2018-11-04T00:42:54.901Z,9.60
2018-11-04T00:45:22.410Z,9.58
2018-11-04T00:47:49.833Z,9.52
2018-11-04T00:50:17.339Z,9.51
2018-11-04T00:52:45.143Z,9.50
2018-11-04T00:55:13.128Z,9.49
2018-11-04T00:57:40.871Z,9.50
2018-11-04T01:00:17.574Z,9.49
2018-11-04T01:02:46.234Z,9.53
2018-11-04T01:05:13.762Z,9.53
2018-11-04T01:07:41.272Z,9.53
2018-11-04T01:10:10.056Z,9.50
2018-11-04T01:12:37.908Z,9.51
2018-11-04T01:15:06.735Z,9.51
2018-11-04T01:17:34.386Z,9.49
2018-11-04T01:20:01.965Z,9.46
2018-11-04T01:22:29.697Z,9.45
2018-11-04T01:24:57.189Z,9.44
2018-11-04T01:27:24.643Z,9.45
2018-11-04T01:29:52.131Z,9.49
2018-11-04T01:32:19.702Z,9.51
2018-11-04T01:34:47.256Z,9.50
2018-11-04T01:37:14.795Z,9.49
2018-11-04T01:39:42.487Z,9.51
2018-11-04T01:42:09.945Z,9.52
2018-11-04T01:44:37.399Z,9.53
2018-11-04T01:47:05.234Z,9.56
2018-11-04T01:49:32.714Z,9.59
2018-11-04T01:52:00.208Z,9.56
2018-11-04T01:54:27.756Z,9.54
2018-11-04T01:56:55.338Z,9.57
2018-11-04T01:59:22.908Z,9.56
2018-11-04T02:01:50.736Z,9.57
2018-11-04T02:04:18.173Z,9.58
2018-11-04T02:06:45.740Z,9.59
2018-11-04T02:09:13.436Z,9.61
2018-11-04T02:11:40.954Z,9.63
2018-11-04T02:14:08.441Z,9.59
2018-11-04T02:16:36.200Z,9.60
2018-11-04T02:19:03.824Z,9.60
2018-11-04T02:21:31.319Z,9.62
2018-11-04T02:23:58.865Z,9.63
2018-11-04T02:26:26.456Z,9.63
2018-11-04T02:28:54.025Z,9.64
2018-11-04T02:31:21.493Z,9.64
2018-11-04T02:33:49.013Z,9.66
2018-11-04T02:36:16.602Z,9.62
2018-11-04T02:38:44.131Z,9.61
2018-11-04T02:41:11.661Z,9.58
2018-11-04T02:43:39.352Z,9.60
2018-11-04T02:46:07.004Z,9.63
2018-11-04T02:48:34.470Z,9.61
2018-11-04T02:51:02.264Z,9.63
2018-11-04T02:53:29.797Z,9.66
2018-11-04T02:55:57.469Z,9.62
2018-11-04T02:58:24.977Z,9.62
2018-11-04T03:00:52.535Z,9.63
2018-11-04T03:03:20.013Z,9.63
2018-11-04T03:05:47.466Z,9.58
2018-11-04T03:08:14.948Z,9.57
2018-11-04T03:10:42.513Z,9.59
2018-11-04T03:13:09.989Z,9.54
2018-11-04T03:15:37.475Z,9.57
2018-11-04T03:18:04.948Z,9.59
2018-11-04T03:20:32.423Z,9.61
2018-11-04T03:22:59.904Z,9.61
2018-11-04T03:25:27.412Z,9.64
2018-11-04T03:27:54.883Z,9.64
2018-11-04T03:30:22.381Z,9.65
2018-11-04T03:32:50.108Z,9.66
2018-11-04T03:35:17.604Z,9.62
2018-11-04T03:37:45.097Z,9.60
2018-11-04T03:40:13.337Z,9.59
2018-11-04T03:42:41.436Z,9.61
2018-11-04T03:45:09.561Z,9.62
2018-11-04T03:47:37.053Z,9.64
2018-11-04T03:50:06.491Z,9.65
2018-11-04T03:52:33.929Z,9.66
2018-11-04T03:55:01.473Z,9.68
2018-11-04T03:57:28.983Z,9.68
2018-11-04T03:59:56.461Z,9.69
2018-11-04T04:02:24.060Z,9.70
2018-11-04T04:04:51.500Z,9.71
2018-11-04T04:07:18.961Z,9.73
2018-11-04T04:09:46.441Z,9.73
2018-11-04T04:12:13.953Z,9.71
2018-11-04T04:14:41.463Z,9.67
2018-11-04T04:17:08.943Z,9.62
2018-11-04T04:19:36.427Z,9.59
2018-11-04T04:22:04.372Z,9.59
2018-11-04T04:24:31.823Z,9.61
2018-11-04T04:26:59.285Z,9.60
2018-11-04T04:29:26.705Z,9.57
2018-11-04T04:31:54.136Z,9.58
2018-11-04T04:34:21.556Z,9.62
2018-11-04T04:36:49.010Z,9.65
2018-11-04T04:39:16.427Z,9.65
2018-11-04T04:41:43.945Z,9.66
2018-11-04T04:44:11.372Z,9.69
2018-11-04T04:46:38.948Z,9.65
2018-11-04T04:49:06.529Z,9.65
2018-11-04T04:51:34.087Z,9.64
2018-11-04T04:54:01.586Z,9.65
2018-11-04T04:56:29.065Z,9.65
2018-11-04T04:58:56.665Z,9.65
2018-11-04T05:01:24.132Z,9.64
2018-11-04T05:03:51.746Z,9.65
2018-11-04T05:06:19.350Z,9.70
2018-11-04T05:08:46.790Z,9.70
2018-11-04T05:11:14.358Z,9.73
2018-11-04T05:13:41.824Z,9.73
2018-11-04T05:16:09.256Z,9.74
2018-11-04T05:18:36.854Z,9.75
2018-11-04T05:21:04.368Z,9.76
2018-11-04T05:23:31.876Z,9.74
2018-11-04T05:25:59.444Z,9.75
2018-11-04T05:28:27.094Z,9.74
2018-11-04T05:30:54.616Z,9.73
2018-11-04T05:33:22.086Z,9.72
2018-11-04T05:35:50.000Z,9.73
2018-11-04T05:38:17.553Z,9.74
2018-11-04T05:40:45.075Z,9.74
2018-11-04T05:43:12.530Z,9.75
2018-11-04T05:45:40.004Z,9.77
2018-11-04T05:48:07.657Z,9.78
2018-11-04T05:50:35.177Z,9.80
2018-11-04T05:53:02.613Z,9.82
2018-11-04T05:55:30.157Z,9.82
2018-11-04T05:57:57.688Z,9.81
2018-11-04T06:00:25.205Z,9.80
2018-11-04T06:02:52.619Z,9.83
2018-11-04T06:05:20.105Z,9.85
2018-11-04T06:07:47.624Z,9.89
2018-11-04T06:10:15.097Z,9.92
2018-11-04T06:12:42.599Z,9.94
2018-11-04T06:15:10.061Z,9.95
2018-11-04T06:17:37.506Z,9.97
2018-11-04T06:20:06.429Z,9.97
2018-11-04T06:22:33.859Z,9.99
2018-11-04T06:25:01.433Z,10.02
2018-11-04T06:27:29.026Z,10.05
2018-11-04T06:29:56.493Z,10.06
2018-11-04T06:32:24.039Z,10.08
2018-11-04T06:34:51.472Z,10.11
2018-11-04T06:37:18.942Z,10.14
2018-11-04T06:39:46.648Z,10.18
2018-11-04T06:42:14.280Z,10.19
2018-11-04T06:44:41.740Z,10.18
2018-11-04T06:47:09.445Z,10.25
2018-11-04T06:49:36.815Z,10.26
2018-11-04T06:52:04.869Z,10.28
2018-11-04T06:54:32.380Z,10.33
2018-11-04T06:56:59.884Z,10.33
2018-11-04T06:59:27.367Z,10.34
2018-11-04T07:01:54.955Z,10.38
2018-11-04T07:04:23.873Z,10.41
2018-11-04T07:06:51.331Z,10.43
2018-11-04T07:09:18.982Z,10.45
2018-11-04T07:11:47.571Z,10.48
2018-11-04T07:14:15.229Z,10.51
2018-11-04T07:16:43.445Z,10.56
2018-11-04T07:19:11.085Z,10.60
2018-11-04T07:21:38.597Z,10.62
2018-11-04T07:24:06.344Z,10.64
2018-11-04T07:26:34.488Z,10.67
2018-11-04T07:29:02.033Z,10.68
2018-11-04T07:31:29.535Z,10.69
2018-11-04T07:33:57.101Z,10.69
2018-11-04T07:36:24.689Z,10.69
2018-11-04T07:38:52.291Z,10.66
2018-11-04T07:41:20.450Z,10.63
2018-11-04T07:43:48.321Z,10.67
2018-11-04T07:46:17.105Z,10.69
2018-11-04T07:48:44.745Z,10.71
2018-11-04T07:51:12.200Z,10.72
2018-11-04T07:53:39.680Z,10.75
2018-11-04T07:56:07.240Z,10.76
2018-11-04T07:58:34.695Z,10.77
2018-11-04T08:01:02.550Z,10.82
2018-11-04T08:03:30.032Z,10.86
2018-11-04T08:05:57.526Z,10.90
2018-11-04T08:08:24.976Z,10.94
2018-11-04T08:10:52.503Z,10.97
2018-11-04T08:13:20.024Z,10.99
2018-11-04T08:15:47.542Z,11.03
2018-11-04T08:18:15.148Z,11.03
2018-11-04T08:20:42.587Z,11.01
2018-11-04T08:23:10.318Z,11.00
2018-11-04T08:25:37.893Z,10.97
2018-11-04T08:28:06.254Z,10.99
2018-11-04T08:30:33.802Z,11.02
2018-11-04T08:33:01.242Z,11.08
2018-11-04T08:35:28.770Z,11.11
2018-11-04T08:37:56.382Z,11.15
2018-11-04T08:40:23.909Z,11.15
2018-11-04T08:42:51.377Z,11.18
2018-11-04T08:45:18.973Z,11.22
2018-11-04T08:47:46.419Z,11.27
2018-11-04T08:50:13.885Z,11.30
2018-11-04T08:52:41.412Z,11.33
2018-11-04T08:55:09.982Z,11.38
2018-11-04T08:57:37.514Z,11.41
2018-11-04T09:00:07.154Z,11.44
2018-11-04T09:02:34.530Z,11.46
2018-11-04T09:05:02.314Z,11.49
2018-11-04T09:07:30.019Z,11.53
2018-11-04T09:09:57.590Z,11.56
2018-11-04T09:12:25.046Z,11.58
2018-11-04T09:14:52.498Z,11.67
2018-11-04T09:17:20.107Z,11.75
2018-11-04T09:19:47.641Z,11.79
2018-11-04T09:22:15.423Z,11.84
2018-11-04T09:24:42.766Z,11.88
2018-11-04T09:27:10.246Z,11.93
2018-11-04T09:29:37.906Z,11.97
2018-11-04T09:32:05.470Z,11.95
2018-11-04T09:34:32.974Z,11.95
2018-11-04T09:37:00.412Z,12.03
2018-11-04T09:39:27.838Z,12.09
2018-11-04T09:41:55.373Z,12.10
2018-11-04T09:44:22.835Z,12.20
2018-11-04T09:46:50.307Z,12.25
2018-11-04T09:49:17.848Z,12.34
2018-11-04T09:51:45.512Z,12.38
2018-11-04T09:54:13.341Z,12.42
2018-11-04T09:56:40.963Z,12.46
2018-11-04T09:59:08.460Z,12.47
2018-11-04T10:01:35.890Z,12.46
2018-11-04T10:04:03.508Z,12.56
2018-11-04T10:06:31.318Z,12.59
2018-11-04T10:08:58.772Z,12.64
2018-11-04T10:11:26.219Z,12.69
2018-11-04T10:13:53.666Z,12.72
2018-11-04T10:16:21.321Z,12.72
2018-11-04T10:18:48.919Z,12.76
2018-11-04T10:21:16.330Z,12.81
2018-11-04T10:23:43.807Z,12.86
2018-11-04T10:26:11.234Z,12.91
2018-11-04T10:28:38.705Z,12.98
2018-11-04T10:31:06.239Z,13.10
2018-11-04T10:33:33.774Z,13.21
2018-11-04T10:36:01.263Z,13.26
2018-11-04T10:38:28.730Z,13.29
2018-11-04T10:40:56.350Z,13.37
2018-11-04T10:43:23.870Z,13.45
2018-11-04T10:45:51.707Z,13.49
2018-11-04T10:48:19.162Z,13.51
2018-11-04T10:50:46.643Z,13.51
2018-11-04T10:53:14.097Z,13.54
2018-11-04T10:55:41.667Z,13.46
2018-11-04T10:58:09.181Z,13.40
2018-11-04T11:00:42.361Z,13.48
2018-11-04T11:03:09.969Z,13.54
2018-11-04T11:05:37.515Z,13.46
2018-11-04T11:08:05.235Z,13.57
2018-11-04T11:10:33.072Z,13.73
2018-11-04T11:13:00.535Z,13.89
2018-11-04T11:15:28.055Z,14.03
2018-11-04T11:17:55.487Z,14.21
2018-11-04T11:20:23.023Z,14.43
2018-11-04T11:22:50.744Z,14.59
2018-11-04T11:25:18.227Z,14.62
2018-11-04T11:27:45.996Z,14.73
2018-11-04T11:30:13.656Z,14.88
2018-11-04T11:32:41.223Z,14.92
2018-11-04T11:35:08.811Z,15.01
2018-11-04T11:37:36.407Z,15.05
2018-11-04T11:40:04.709Z,15.00
2018-11-04T11:42:32.448Z,14.97
2018-11-04T11:45:00.142Z,14.86
2018-11-04T11:47:27.695Z,14.94
2018-11-04T11:49:55.410Z,15.02
2018-11-04T11:52:23.153Z,15.06
2018-11-04T11:54:50.925Z,15.09
2018-11-04T11:57:18.539Z,15.18
2018-11-04T11:59:46.213Z,15.26
2018-11-04T12:02:14.017Z,15.28
2018-11-04T12:04:41.771Z,15.19
2018-11-04T12:07:09.481Z,15.20
2018-11-04T12:09:37.429Z,15.18
2018-11-04T12:12:05.231Z,15.12
2018-11-04T12:14:32.737Z,15.08
2018-11-04T12:17:00.504Z,15.00
2018-11-04T12:19:27.969Z,15.06
2018-11-04T12:21:55.533Z,15.11
2018-11-04T12:24:23.051Z,15.03
2018-11-04T12:26:50.650Z,14.83
2018-11-04T12:29:18.173Z,14.88
2018-11-04T12:31:45.856Z,14.87
2018-11-04T12:34:14.023Z,14.86
2018-11-04T12:36:41.841Z,14.81
2018-11-04T12:39:10.290Z,14.75
2018-11-04T12:41:37.905Z,14.67
2018-11-04T12:44:06.109Z,14.60
2018-11-04T12:46:33.631Z,14.49
2018-11-04T12:49:01.243Z,14.32
2018-11-04T12:51:29.252Z,14.20
2018-11-04T12:53:56.854Z,14.16
2018-11-04T12:56:24.384Z,14.11
2018-11-04T12:58:52.225Z,14.06
2018-11-04T13:01:19.907Z,14.06
2018-11-04T13:03:47.568Z,14.06
2018-11-04T13:06:15.459Z,14.03
2018-11-04T13:08:43.141Z,14.03
2018-11-04T13:11:10.618Z,14.01
2018-11-04T13:13:38.093Z,14.03
2018-11-04T13:16:05.685Z,14.03
2018-11-04T13:18:33.198Z,14.06
2018-11-04T13:21:00.690Z,14.03
2018-11-04T13:23:28.186Z,14.04
2018-11-04T13:25:55.791Z,14.10
2018-11-04T13:28:23.322Z,14.18
2018-11-04T13:30:50.889Z,14.22
2018-11-04T13:33:18.461Z,14.25
2018-11-04T13:35:45.975Z,14.19
2018-11-04T13:38:13.443Z,14.20
2018-11-04T13:40:41.023Z,14.11
2018-11-04T13:43:08.618Z,13.99
2018-11-04T13:45:36.217Z,13.88
2018-11-04T13:48:03.641Z,13.89
2018-11-04T13:50:31.100Z,13.80
2018-11-04T13:52:58.620Z,13.68
2018-11-04T13:55:26.191Z,13.60
2018-11-04T13:57:53.773Z,13.59
2018-11-04T14:00:21.565Z,13.64
2018-11-04T14:02:49.432Z,13.64
2018-11-04T14:05:17.279Z,13.62
2018-11-04T14:07:44.817Z,13.56
2018-11-04T14:10:13.817Z,13.53
2018-11-04T14:12:42.295Z,13.48
2018-11-04T14:15:10.301Z,13.41
2018-11-04T14:17:37.769Z,13.31
2018-11-04T14:20:07.474Z,13.32
2018-11-04T14:22:35.262Z,13.30
2018-11-04T14:25:02.858Z,13.29
2018-11-04T14:27:30.319Z,13.27
2018-11-04T14:29:57.899Z,13.23
2018-11-04T14:32:25.369Z,13.23
2018-11-04T14:34:52.989Z,13.28
2018-11-04T14:37:21.019Z,13.37
2018-11-04T14:39:49.560Z,13.32
2018-11-04T14:42:17.019Z,13.29
2018-11-04T14:44:45.212Z,13.34
2018-11-04T14:47:12.711Z,13.35
2018-11-04T14:49:40.157Z,13.30
2018-11-04T14:52:07.724Z,13.27
2018-11-04T14:54:35.289Z,13.23
2018-11-04T14:57:02.815Z,13.17
2018-11-04T14:59:30.340Z,13.12
2018-11-04T15:01:57.961Z,13.14
2018-11-04T15:04:25.428Z,13.22
2018-11-04T15:06:52.952Z,13.18
2018-11-04T15:09:20.359Z,13.15
2018-11-04T15:11:47.938Z,13.18
2018-11-04T15:14:15.436Z,13.18
2018-11-04T15:16:42.960Z,13.18
2018-11-04T15:19:10.618Z,13.21
2018-11-04T15:21:38.017Z,13.17
2018-11-04T15:24:05.495Z,13.10
2018-11-04T15:26:33.206Z,13.10
2018-11-04T15:29:00.723Z,13.02
2018-11-04T15:31:28.210Z,13.05
2018-11-04T15:33:55.809Z,13.07
2018-11-04T15:36:23.284Z,13.01
2018-11-04T15:38:51.004Z,13.03
2018-11-04T15:41:18.557Z,12.96
2018-11-04T15:43:46.136Z,12.92
2018-11-04T15:46:13.633Z,12.92
2018-11-04T15:48:41.392Z,12.86
2018-11-04T15:51:09.021Z,12.83
2018-11-04T15:53:36.468Z,12.80
2018-11-04T15:56:04.413Z,12.75
2018-11-04T15:58:32.189Z,12.74
2018-11-04T16:00:59.785Z,12.73
2018-11-04T16:03:27.291Z,12.84
2018-11-04T16:05:54.947Z,12.91
2018-11-04T16:08:22.440Z,12.89
2018-11-04T16:10:49.906Z,12.85
2018-11-04T16:13:17.349Z,12.82
2018-11-04T16:15:44.970Z,12.73
2018-11-04T16:18:12.613Z,12.71
2018-11-04T16:20:40.140Z,12.69
2018-11-04T16:23:07.617Z,12.67
2018-11-04T16:25:35.183Z,12.72
2018-11-04T16:28:02.724Z,12.75
2018-11-04T16:30:30.268Z,12.72
2018-11-04T16:32:57.824Z,12.76
2018-11-04T16:35:25.387Z,12.75
2018-11-04T16:37:53.081Z,12.73
2018-11-04T16:40:20.494Z,12.72
2018-11-04T16:42:48.044Z,12.68
2018-11-04T16:45:16.137Z,12.69
2018-11-04T16:47:43.887Z,12.71
2018-11-04T16:50:12.575Z,12.71
2018-11-04T16:52:40.576Z,12.70
2018-11-04T16:55:08.929Z,12.72
2018-11-04T16:57:36.574Z,12.70
2018-11-04T17:00:04.569Z,12.72
2018-11-04T17:02:32.057Z,12.70
2018-11-04T17:04:59.711Z,12.71
2018-11-04T17:07:27.193Z,12.75
2018-11-04T17:09:54.624Z,12.78
2018-11-04T17:12:22.135Z,12.79
2018-11-04T17:14:49.745Z,12.77
2018-11-04T17:17:17.392Z,12.73
2018-11-04T17:19:44.968Z,12.71
2018-11-04T17:22:12.549Z,12.71
2018-11-04T17:24:40.189Z,12.71
2018-11-04T17:27:07.952Z,12.67
2018-11-04T17:29:35.382Z,12.69
2018-11-04T17:32:03.033Z,12.76
2018-11-04T17:34:30.728Z,12.73
2018-11-04T17:36:58.248Z,12.70
2018-11-04T17:39:25.699Z,12.84
2018-11-04T17:41:53.524Z,12.85
2018-11-04T17:44:21.126Z,12.74
2018-11-04T17:46:48.602Z,12.67
2018-11-04T17:49:16.066Z,12.64
2018-11-04T17:51:43.707Z,12.78
2018-11-04T17:54:11.247Z,12.73
2018-11-04T17:56:38.665Z,12.74
2018-11-04T17:59:06.197Z,12.73
2018-11-04T18:01:33.683Z,12.73
2018-11-04T18:04:01.343Z,12.74
2018-11-04T18:06:28.973Z,12.73
2018-11-04T18:08:56.340Z,12.66
2018-11-04T18:11:23.866Z,12.57
2018-11-04T18:13:51.447Z,12.58
2018-11-04T18:16:18.904Z,12.59
2018-11-04T18:18:46.371Z,12.51
2018-11-04T18:21:13.849Z,12.54
2018-11-04T18:23:41.463Z,12.55
2018-11-04T18:26:09.005Z,12.53
2018-11-04T18:28:36.401Z,12.51
2018-11-04T18:31:04.229Z,12.45
2018-11-04T18:33:31.765Z,12.51
2018-11-04T18:35:59.248Z,12.53
2018-11-04T18:38:26.659Z,12.48
2018-11-04T18:40:54.304Z,12.46
2018-11-04T18:43:21.963Z,12.47
2018-11-04T18:45:49.477Z,12.43
2018-11-04T18:48:17.275Z,12.37
2018-11-04T18:50:44.845Z,12.41
2018-11-04T18:53:12.544Z,12.53
2018-11-04T18:55:40.107Z,12.44
2018-11-04T18:58:07.594Z,12.39
2018-11-04T19:00:35.111Z,12.44
2018-11-04T19:03:02.633Z,12.40
2018-11-04T19:05:30.253Z,12.31
2018-11-04T19:07:57.748Z,12.27
2018-11-04T19:10:25.415Z,12.30
2018-11-04T19:12:53.095Z,12.33
2018-11-04T19:15:20.597Z,12.26
2018-11-04T19:17:48.069Z,12.24
2018-11-04T19:20:15.991Z,12.24
2018-11-04T19:22:43.600Z,12.26
2018-11-04T19:25:12.497Z,12.25
2018-11-04T19:27:40.292Z,12.26
2018-11-04T19:30:10.488Z,12.24
2018-11-04T19:32:38.275Z,12.29
2018-11-04T19:35:06.667Z,12.29
2018-11-04T19:37:35.415Z,12.24
2018-11-04T19:40:03.662Z,12.22
2018-11-04T19:42:31.480Z,12.23
2018-11-04T19:44:58.767Z,12.31
2018-11-04T19:47:26.418Z,12.21
2018-11-04T19:49:53.876Z,12.28
2018-11-04T19:52:21.414Z,12.23
2018-11-04T19:54:48.934Z,12.17
2018-11-04T19:57:16.431Z,12.16
2018-11-04T19:59:43.872Z,12.17
2018-11-04T20:02:11.885Z,12.19
2018-11-04T20:04:39.453Z,12.30
2018-11-04T20:07:07.028Z,12.27
2018-11-04T20:09:34.466Z,12.18
2018-11-04T20:12:01.963Z,12.10
2018-11-04T20:14:29.490Z,12.09
2018-11-04T20:16:57.376Z,12.09
2018-11-04T20:19:30.744Z,12.09
2018-11-04T20:21:58.187Z,12.13
2018-11-04T20:24:31.433Z,12.22
2018-11-04T20:26:59.032Z,12.21
2018-11-04T20:29:26.553Z,12.20
2018-11-04T20:31:59.713Z,12.17
2018-11-04T20:34:27.340Z,12.19
2018-11-04T20:36:55.801Z,12.18
2018-11-04T20:39:29.567Z,12.12
2018-11-04T20:41:57.526Z,12.13
2018-11-04T20:44:25.600Z,12.12
2018-11-04T20:46:53.102Z,12.11
2018-11-04T20:49:26.207Z,12.12
2018-11-04T20:51:53.962Z,12.10
2018-11-04T20:54:21.465Z,12.11
2018-11-04T20:56:54.668Z,12.08
2018-11-04T20:59:22.232Z,12.09
2018-11-04T21:01:50.054Z,12.13
2018-11-04T21:04:17.506Z,12.12
2018-11-04T21:06:45.023Z,12.09
2018-11-04T21:09:12.528Z,12.11
2018-11-04T21:11:40.214Z,12.09
2018-11-04T21:14:07.701Z,12.09
2018-11-04T21:16:35.338Z,12.11
2018-11-04T21:19:02.812Z,12.16
2018-11-04T21:21:31.470Z,12.15
2018-11-04T21:23:58.968Z,12.18
2018-11-04T21:26:26.618Z,12.20
2018-11-04T21:28:54.251Z,12.16
2018-11-04T21:31:28.643Z,12.14
2018-11-04T21:33:56.386Z,12.12
2018-11-04T21:36:25.499Z,12.17
2018-11-04T21:38:53.129Z,12.14
2018-11-04T21:41:20.715Z,12.09
2018-11-04T21:43:48.590Z,12.08
2018-11-04T21:46:16.088Z,12.09
2018-11-04T21:48:44.335Z,12.07
2018-11-04T21:51:11.943Z,12.09
2018-11-04T21:53:39.348Z,12.14
2018-11-04T21:56:07.730Z,12.15
2018-11-04T21:58:35.262Z,12.08
2018-11-04T22:01:02.805Z,12.05
2018-11-04T22:03:30.478Z,12.03
2018-11-04T22:05:58.129Z,12.03
2018-11-04T22:08:25.660Z,12.02
2018-11-04T22:10:53.269Z,12.07
2018-11-04T22:13:20.866Z,12.09
2018-11-04T22:15:48.570Z,12.09
2018-11-04T22:18:16.144Z,12.12
2018-11-04T22:20:43.709Z,12.13
2018-11-04T22:23:11.229Z,12.13
2018-11-04T22:25:39.054Z,12.13
2018-11-04T22:28:06.670Z,12.13
2018-11-04T22:30:34.301Z,12.12
2018-11-04T22:33:01.842Z,12.17
2018-11-04T22:35:29.575Z,12.18
2018-11-04T22:37:57.162Z,12.18
2018-11-04T22:40:24.654Z,12.17
2018-11-04T22:42:52.355Z,12.16
2018-11-04T22:45:19.926Z,12.17
2018-11-04T22:47:47.421Z,12.16
2018-11-04T22:50:15.574Z,12.17
2018-11-04T22:52:43.462Z,12.16
2018-11-04T22:55:12.136Z,12.16
2018-11-04T22:57:39.640Z,12.18
2018-11-04T23:00:13.745Z,12.18
2018-11-04T23:02:41.629Z,12.15
2018-11-04T23:05:14.838Z,12.12
2018-11-04T23:07:42.362Z,12.11
2018-11-04T23:10:09.746Z,12.11
2018-11-04T23:12:37.374Z,12.08
2018-11-04T23:15:05.218Z,12.07
2018-11-04T23:17:32.710Z,12.04
2018-11-04T23:20:00.241Z,11.98
2018-11-04T23:22:27.702Z,11.96
2018-11-04T23:24:55.342Z,11.98
2018-11-04T23:27:22.850Z,11.99
2018-11-04T23:29:50.473Z,11.96
2018-11-04T23:32:18.054Z,11.94
2018-11-04T23:34:45.512Z,11.95
2018-11-04T23:37:12.946Z,11.93
2018-11-04T23:39:40.346Z,11.92
2018-11-04T23:42:07.896Z,11.92
2018-11-04T23:44:35.393Z,11.94
2018-11-04T23:47:02.969Z,11.91
2018-11-04T23:49:31.350Z,11.91
2018-11-04T23:51:58.809Z,11.87
2018-11-04T23:54:26.251Z,11.86
2018-11-04T23:56:53.885Z,11.84
2018-11-04T23:59:21.369Z,11.87
